createdAt,value
2023-01-09T00:00:55.822Z,54.75
2023-01-09T00:03:26.105Z,54.57
2023-01-09T00:05:53.170Z,54.56
2023-01-09T00:08:20.067Z,54.52
2023-01-09T00:10:49.236Z,54.75
2023-01-09T00:13:18.100Z,54.62
2023-01-09T00:15:45.344Z,54.87
2023-01-09T00:18:12.118Z,54.68
2023-01-09T00:20:39.125Z,54.72
2023-01-09T00:23:05.969Z,54.78
2023-01-09T00:25:33.596Z,54.79
2023-01-09T00:28:00.424Z,54.53
2023-01-09T00:30:27.499Z,54.72
2023-01-09T00:32:54.843Z,54.47
2023-01-09T00:35:22.879Z,54.44
2023-01-09T00:37:49.626Z,54.68
2023-01-09T00:40:17.400Z,54.49
2023-01-09T00:42:46.056Z,54.88
2023-01-09T00:45:20.044Z,54.61
2023-01-09T00:47:48.769Z,54.48
2023-01-09T00:50:21.700Z,54.63
2023-01-09T00:52:48.568Z,54.78
2023-01-09T00:55:15.639Z,54.58
2023-01-09T00:57:42.422Z,54.76
2023-01-09T01:00:10.407Z,54.69
2023-01-09T01:02:37.178Z,54.60
2023-01-09T01:05:22.914Z,54.48
2023-01-09T01:07:49.694Z,54.60
2023-01-09T01:10:22.710Z,54.74
2023-01-09T01:12:49.674Z,54.99
2023-01-09T01:15:17.240Z,54.79
2023-01-09T01:17:44.069Z,54.94
2023-01-09T01:20:16.227Z,54.94
2023-01-09T01:22:43.151Z,54.74
2023-01-09T01:25:11.132Z,54.78
2023-01-09T01:27:37.964Z,54.90
2023-01-09T01:30:06.410Z,54.86
2023-01-09T01:32:33.163Z,54.91
2023-01-09T01:35:00.197Z,54.92
2023-01-09T01:37:27.846Z,54.97
2023-01-09T01:39:55.033Z,55.04
2023-01-09T01:42:21.926Z,54.99
2023-01-09T01:44:55.100Z,55.11
2023-01-09T01:47:22.087Z,54.91
2023-01-09T01:49:49.156Z,55.01
2023-01-09T01:52:16.196Z,55.02
2023-01-09T01:54:43.248Z,55.23
2023-01-09T01:57:09.978Z,55.13
2023-01-09T01:59:42.454Z,54.88
2023-01-09T02:02:09.339Z,55.22
2023-01-09T02:04:39.276Z,55.02
2023-01-09T02:07:09.799Z,55.10
2023-01-09T02:09:37.771Z,54.76
2023-01-09T02:12:37.044Z,55.01
2023-01-09T02:15:12.435Z,55.11
2023-01-09T02:17:54.978Z,55.03
2023-01-09T02:20:44.083Z,54.96
2023-01-09T02:23:22.722Z,55.32
2023-01-09T02:26:35.123Z,55.04
2023-01-09T02:29:23.639Z,55.10
2023-01-09T02:32:11.633Z,55.39
2023-01-09T02:34:59.189Z,54.96
2023-01-09T02:37:32.291Z,55.14
2023-01-09T02:40:07.551Z,54.98
2023-01-09T02:42:34.608Z,55.04
2023-01-09T02:45:01.350Z,55.03
2023-01-09T02:47:29.371Z,55.18
2023-01-09T02:49:58.089Z,55.48
2023-01-09T02:52:51.625Z,55.10
2023-01-09T02:55:43.765Z,55.07
2023-01-09T02:58:33.985Z,55.14
2023-01-09T03:01:22.234Z,55.11
2023-01-09T03:03:58.309Z,55.13
2023-01-09T03:06:40.219Z,55.12
2023-01-09T03:09:10.779Z,55.17
2023-01-09T03:11:40.530Z,55.21
2023-01-09T03:14:11.158Z,55.48
2023-01-09T03:16:38.147Z,55.28
2023-01-09T03:19:07.384Z,55.28
2023-01-09T03:21:34.131Z,55.18
2023-01-09T03:24:01.731Z,55.53
2023-01-09T03:26:31.280Z,55.14
2023-01-09T03:28:58.963Z,55.22
2023-01-09T03:31:25.785Z,55.39
2023-01-09T03:33:52.916Z,55.32
2023-01-09T03:36:20.426Z,55.24
2023-01-09T03:38:47.558Z,55.20
2023-01-09T03:41:14.307Z,55.14
2023-01-09T03:43:41.391Z,55.22
2023-01-09T03:46:08.145Z,55.19
2023-01-09T03:48:35.249Z,55.11
2023-01-09T03:51:02.090Z,55.29
2023-01-09T03:53:29.215Z,55.47
2023-01-09T03:55:56.667Z,55.17
2023-01-09T03:58:23.917Z,55.28
2023-01-09T04:00:51.050Z,55.17
2023-01-09T04:03:19.425Z,55.20
2023-01-09T04:05:46.823Z,55.23
2023-01-09T04:08:13.991Z,55.14
2023-01-09T04:10:40.783Z,55.43
2023-01-09T04:13:07.875Z,55.23
2023-01-09T04:15:34.591Z,55.22
2023-01-09T04:18:02.095Z,55.14
2023-01-09T04:20:28.898Z,55.42
2023-01-09T04:22:55.950Z,55.33
2023-01-09T04:25:25.617Z,55.28
2023-01-09T04:27:53.022Z,55.29
2023-01-09T04:30:19.849Z,55.39
2023-01-09T04:32:46.904Z,55.07
2023-01-09T04:35:13.683Z,55.34
2023-01-09T04:37:40.743Z,55.16
2023-01-09T04:40:12.091Z,55.39
2023-01-09T04:42:39.341Z,55.22
2023-01-09T04:45:06.799Z,55.51
2023-01-09T04:47:33.862Z,55.30
2023-01-09T04:50:00.874Z,55.06
2023-01-09T04:52:28.192Z,55.17
2023-01-09T04:54:54.986Z,55.31
2023-01-09T04:57:22.019Z,55.40
2023-01-09T04:59:48.768Z,55.43
2023-01-09T05:02:15.882Z,55.43
2023-01-09T05:04:42.684Z,55.49
2023-01-09T05:07:09.755Z,55.39
2023-01-09T05:09:36.892Z,55.44
2023-01-09T05:12:04.176Z,55.36
2023-01-09T05:14:30.942Z,55.43
2023-01-09T05:16:57.961Z,55.17
2023-01-09T05:19:24.754Z,55.24
2023-01-09T05:21:51.835Z,55.39
2023-01-09T05:24:18.671Z,55.48
2023-01-09T05:26:45.711Z,55.54
2023-01-09T05:29:12.503Z,55.48
2023-01-09T05:31:39.576Z,55.41
2023-01-09T05:34:06.353Z,55.19
2023-01-09T05:36:33.491Z,55.40
2023-01-09T05:39:00.406Z,55.60
2023-01-09T05:41:27.628Z,55.80
2023-01-09T05:43:54.397Z,55.64
2023-01-09T05:46:21.450Z,55.64
2023-01-09T05:48:48.142Z,55.62
2023-01-09T05:51:15.150Z,55.77
2023-01-09T05:53:41.950Z,55.67
2023-01-09T05:56:11.263Z,55.64
2023-01-09T05:58:38.371Z,55.89
2023-01-09T06:01:05.684Z,55.82
2023-01-09T06:03:32.929Z,55.85
2023-01-09T06:06:00.015Z,55.91
2023-01-09T06:08:26.760Z,56.05
2023-01-09T06:10:53.744Z,55.88
2023-01-09T06:13:20.506Z,55.82
2023-01-09T06:15:48.106Z,55.78
2023-01-09T06:18:14.963Z,55.84
2023-01-09T06:20:42.138Z,55.88
2023-01-09T06:23:08.929Z,55.56
2023-01-09T06:25:35.921Z,55.95
2023-01-09T06:28:02.628Z,55.80
2023-01-09T06:30:29.712Z,55.66
2023-01-09T06:32:56.477Z,55.78
2023-01-09T06:35:23.648Z,55.81
2023-01-09T06:37:50.502Z,55.84
2023-01-09T06:40:17.982Z,55.79
2023-01-09T06:42:47.995Z,55.84
2023-01-09T06:45:15.623Z,55.55
2023-01-09T06:47:42.362Z,55.76
2023-01-09T06:50:10.033Z,55.74
2023-01-09T06:52:37.123Z,55.85
2023-01-09T06:55:04.893Z,55.99
2023-01-09T06:57:31.599Z,55.68
2023-01-09T06:59:58.652Z,55.77
2023-01-09T07:02:25.478Z,56.23
2023-01-09T07:04:52.918Z,55.76
2023-01-09T07:07:20.479Z,55.79
2023-01-09T07:09:47.519Z,55.71
2023-01-09T07:12:15.482Z,55.80
2023-01-09T07:14:42.559Z,55.97
2023-01-09T07:17:11.678Z,56.10
2023-01-09T07:19:38.868Z,56.21
2023-01-09T07:22:05.621Z,56.03
2023-01-09T07:24:32.626Z,56.35
2023-01-09T07:26:59.281Z,56.09
2023-01-09T07:29:27.328Z,56.03
2023-01-09T07:31:54.008Z,56.29
2023-01-09T07:34:20.943Z,56.33
2023-01-09T07:36:48.793Z,56.29
2023-01-09T07:39:15.759Z,56.54
2023-01-09T07:41:42.480Z,56.53
2023-01-09T07:44:11.103Z,56.42
2023-01-09T07:46:37.993Z,56.58
2023-01-09T07:49:05.117Z,56.71
2023-01-09T07:51:31.761Z,56.56
2023-01-09T07:53:58.778Z,56.37
2023-01-09T07:56:25.496Z,56.62
2023-01-09T07:58:52.504Z,56.47
2023-01-09T08:01:19.286Z,56.45
2023-01-09T08:03:46.294Z,56.33
2023-01-09T08:06:12.959Z,56.71
2023-01-09T08:08:39.882Z,56.60
2023-01-09T08:11:06.597Z,56.62
2023-01-09T08:13:33.556Z,56.69
2023-01-09T08:16:00.359Z,56.88
2023-01-09T08:18:27.291Z,56.84
2023-01-09T08:20:53.933Z,56.67
2023-01-09T08:23:20.869Z,56.69
2023-01-09T08:25:47.535Z,56.53
2023-01-09T08:28:14.507Z,56.44
2023-01-09T08:30:41.280Z,56.39
2023-01-09T08:33:08.235Z,56.26
2023-01-09T08:35:35.428Z,56.36
2023-01-09T08:38:02.560Z,56.45
2023-01-09T08:40:29.263Z,56.33
2023-01-09T08:43:14.808Z,56.14
2023-01-09T08:46:00.248Z,56.39
2023-01-09T08:48:27.196Z,56.21
2023-01-09T08:50:54.357Z,56.28
2023-01-09T08:53:21.350Z,56.35
2023-01-09T08:55:48.104Z,56.54
2023-01-09T08:58:15.045Z,56.54
2023-01-09T09:00:41.747Z,56.29
2023-01-09T09:03:09.104Z,56.93
2023-01-09T09:05:35.884Z,56.50
2023-01-09T09:08:03.997Z,56.55
2023-01-09T09:10:30.708Z,56.88
2023-01-09T09:12:58.311Z,56.80
2023-01-09T09:15:26.581Z,56.74
2023-01-09T09:17:58.386Z,56.58
2023-01-09T09:20:27.026Z,56.49
2023-01-09T09:22:54.624Z,56.48
2023-01-09T09:25:21.439Z,56.84
2023-01-09T09:27:48.615Z,56.61
2023-01-09T09:30:16.644Z,56.55
2023-01-09T09:32:43.599Z,56.68
2023-01-09T09:35:10.359Z,56.86
2023-01-09T09:37:37.600Z,56.57
2023-01-09T09:40:17.528Z,56.50
2023-01-09T09:43:13.325Z,56.43
2023-01-09T09:45:49.129Z,56.42
2023-01-09T09:48:25.140Z,56.49
2023-01-09T09:51:00.897Z,56.73
2023-01-09T09:53:38.791Z,56.51
2023-01-09T09:56:05.676Z,56.66
2023-01-09T09:58:37.819Z,56.50
2023-01-09T10:01:05.058Z,56.66
2023-01-09T10:03:41.663Z,56.51
2023-01-09T10:06:42.302Z,56.57
2023-01-09T10:09:24.932Z,56.53
2023-01-09T10:12:23.651Z,56.65
2023-01-09T10:14:50.578Z,56.74
2023-01-09T10:17:24.247Z,56.50
2023-01-09T10:20:17.197Z,56.58
2023-01-09T10:23:21.618Z,56.67
2023-01-09T10:26:02.227Z,56.83
2023-01-09T10:28:59.998Z,56.57
2023-01-09T10:31:36.758Z,56.59
2023-01-09T10:34:25.291Z,56.83
2023-01-09T10:37:02.183Z,56.63
2023-01-09T10:39:36.432Z,56.52
2023-01-09T10:42:21.329Z,56.60
2023-01-09T10:44:53.362Z,56.38
2023-01-09T10:47:32.291Z,56.54
2023-01-09T10:49:59.005Z,56.46
2023-01-09T10:52:32.279Z,56.56
2023-01-09T10:55:14.291Z,56.47
2023-01-09T10:57:45.566Z,56.50
2023-01-09T11:00:23.094Z,56.44
2023-01-09T11:02:51.361Z,56.76
2023-01-09T11:05:29.586Z,56.54
2023-01-09T11:08:12.023Z,56.59
2023-01-09T11:10:49.850Z,56.64
2023-01-09T11:13:21.566Z,56.56
2023-01-09T11:16:05.536Z,56.59
2023-01-09T11:18:41.059Z,56.77
2023-01-09T11:21:34.144Z,56.95
2023-01-09T11:24:19.364Z,56.82
2023-01-09T11:26:46.693Z,56.73
2023-01-09T11:29:15.151Z,56.84
2023-01-09T11:31:43.082Z,56.80
2023-01-09T11:34:17.556Z,57.08
2023-01-09T11:36:44.451Z,57.07
2023-01-09T11:39:28.333Z,56.89
2023-01-09T11:42:02.095Z,56.84
2023-01-09T11:44:29.221Z,56.90
2023-01-09T11:46:56.120Z,57.04
2023-01-09T11:49:28.165Z,56.97
2023-01-09T11:52:17.619Z,56.97
2023-01-09T11:54:50.351Z,56.79
2023-01-09T11:57:22.971Z,57.03
2023-01-09T11:59:56.047Z,56.99
2023-01-09T12:02:30.066Z,56.94
2023-01-09T12:05:02.263Z,56.92
2023-01-09T12:07:35.660Z,56.83
2023-01-09T12:10:36.753Z,56.81
2023-01-09T12:13:15.799Z,57.19
2023-01-09T12:15:51.936Z,57.23
2023-01-09T12:18:23.918Z,56.85
2023-01-09T12:20:55.277Z,56.87
2023-01-09T12:23:24.968Z,57.00
2023-01-09T12:25:58.552Z,56.90
2023-01-09T12:28:34.627Z,56.89
2023-01-09T12:31:04.265Z,57.21
2023-01-09T12:33:59.953Z,57.10
2023-01-09T12:36:42.695Z,57.13
2023-01-09T12:39:31.864Z,56.95
2023-01-09T12:42:04.811Z,56.82
2023-01-09T12:44:45.467Z,57.05
2023-01-09T12:47:13.045Z,56.90
2023-01-09T12:49:41.717Z,56.93
2023-01-09T12:52:34.835Z,56.69
2023-01-09T12:55:13.474Z,56.79
2023-01-09T12:57:42.103Z,56.77
2023-01-09T13:00:18.919Z,56.77
2023-01-09T13:02:48.494Z,56.90
2023-01-09T13:05:17.453Z,57.02
2023-01-09T13:07:59.120Z,56.86
2023-01-09T13:10:33.287Z,57.00
2023-01-09T13:13:06.390Z,57.25
2023-01-09T13:15:36.741Z,57.03
2023-01-09T13:18:14.385Z,57.15
2023-01-09T13:20:49.353Z,56.85
2023-01-09T13:23:57.384Z,57.10
2023-01-09T13:26:37.932Z,56.82
2023-01-09T13:29:25.396Z,56.84
2023-01-09T13:32:13.444Z,56.97
2023-01-09T13:34:40.535Z,57.28
2023-01-09T13:37:13.738Z,56.83
2023-01-09T13:39:40.687Z,57.12
2023-01-09T13:42:26.552Z,56.99
2023-01-09T13:44:55.090Z,56.85
2023-01-09T13:47:28.260Z,56.87
2023-01-09T13:50:20.077Z,56.76
2023-01-09T13:52:46.840Z,57.11
2023-01-09T13:55:16.827Z,56.63
2023-01-09T13:57:45.120Z,56.85
2023-01-09T14:00:12.043Z,56.53
2023-01-09T14:02:38.680Z,56.66
2023-01-09T14:05:09.888Z,56.51
2023-01-09T14:07:37.570Z,56.84
2023-01-09T14:10:23.559Z,56.63
2023-01-09T14:12:50.564Z,56.80
2023-01-09T14:15:37.957Z,56.78
2023-01-09T14:18:14.842Z,56.43
2023-01-09T14:20:43.996Z,57.18
2023-01-09T14:23:52.112Z,56.53
2023-01-09T14:26:25.000Z,57.01
2023-01-09T14:28:51.891Z,56.67
2023-01-09T14:31:28.386Z,56.81
2023-01-09T14:34:31.894Z,56.72
2023-01-09T14:37:00.076Z,56.70
2023-01-09T14:39:27.468Z,56.69
2023-01-09T14:42:00.683Z,56.67
2023-01-09T14:44:31.850Z,56.71
2023-01-09T14:47:20.295Z,56.69
2023-01-09T14:50:16.668Z,56.53
2023-01-09T14:53:05.655Z,56.72
2023-01-09T14:55:51.099Z,56.39
2023-01-09T14:58:18.032Z,56.60
2023-01-09T15:01:08.638Z,56.57
2023-01-09T15:03:41.924Z,56.43
2023-01-09T15:06:17.021Z,56.21
2023-01-09T15:08:47.112Z,56.46
2023-01-09T15:11:14.967Z,56.43
2023-01-09T15:13:44.281Z,56.21
2023-01-09T15:16:21.063Z,56.02
2023-01-09T15:18:50.246Z,56.30
2023-01-09T15:21:19.523Z,56.10
2023-01-09T15:23:46.575Z,56.19
2023-01-09T15:26:27.121Z,56.43
2023-01-09T15:29:00.721Z,56.21
2023-01-09T15:31:27.467Z,56.54
2023-01-09T15:33:54.471Z,56.22
2023-01-09T15:36:23.814Z,56.13
2023-01-09T15:38:51.025Z,56.17
2023-01-09T15:41:39.628Z,56.14
2023-01-09T15:44:07.385Z,55.83
2023-01-09T15:46:34.073Z,56.24
2023-01-09T15:49:01.106Z,56.04
2023-01-09T15:51:27.810Z,56.11
2023-01-09T15:53:57.500Z,55.88
2023-01-09T15:56:25.139Z,55.65
2023-01-09T15:58:55.233Z,56.13
2023-01-09T16:01:25.028Z,56.02
2023-01-09T16:03:53.487Z,55.86
2023-01-09T16:06:26.624Z,56.05
2023-01-09T16:08:56.032Z,56.08
2023-01-09T16:11:36.401Z,56.00
2023-01-09T16:14:20.747Z,55.86
2023-01-09T16:16:47.490Z,55.99
2023-01-09T16:19:45.313Z,56.02
2023-01-09T16:22:31.895Z,56.08
2023-01-09T16:25:02.592Z,56.24
2023-01-09T16:27:30.861Z,56.00
2023-01-09T16:29:59.469Z,56.03
2023-01-09T16:32:31.720Z,56.21
2023-01-09T16:35:06.025Z,56.06
2023-01-09T16:37:33.331Z,56.07
2023-01-09T16:40:18.648Z,56.55
2023-01-09T16:43:00.596Z,56.31
2023-01-09T16:45:28.739Z,56.16
2023-01-09T16:47:55.539Z,56.21
2023-01-09T16:50:23.917Z,56.17
2023-01-09T16:52:51.340Z,56.17
2023-01-09T16:55:18.287Z,56.26
2023-01-09T16:57:44.976Z,56.59
2023-01-09T17:00:19.306Z,56.45
2023-01-09T17:02:46.059Z,56.47
2023-01-09T17:05:13.385Z,56.22
2023-01-09T17:07:40.399Z,56.56
2023-01-09T17:10:15.914Z,56.55
2023-01-09T17:12:42.722Z,56.39
2023-01-09T17:15:10.538Z,56.41
2023-01-09T17:17:37.252Z,56.28
2023-01-09T17:20:14.073Z,56.46
2023-01-09T17:22:40.730Z,56.25
2023-01-09T17:25:31.816Z,56.79
2023-01-09T17:28:17.168Z,56.64
2023-01-09T17:30:44.161Z,56.47
2023-01-09T17:33:18.372Z,56.30
2023-01-09T17:35:45.445Z,56.50
2023-01-09T17:38:15.839Z,56.33
2023-01-09T17:40:43.226Z,56.65
2023-01-09T17:43:10.171Z,56.27
2023-01-09T17:45:37.915Z,56.81
2023-01-09T17:48:04.945Z,56.60
2023-01-09T17:50:34.660Z,56.67
2023-01-09T17:53:01.294Z,56.70
2023-01-09T17:55:28.246Z,56.53
2023-01-09T17:57:54.882Z,56.41
2023-01-09T18:00:26.550Z,56.59
2023-01-09T18:02:54.059Z,56.80
2023-01-09T18:05:24.387Z,56.78
2023-01-09T18:07:51.371Z,56.91
2023-01-09T18:10:19.929Z,56.57
2023-01-09T18:12:47.800Z,57.14
2023-01-09T18:15:14.845Z,56.77
2023-01-09T18:17:41.900Z,56.64
2023-01-09T18:20:10.718Z,56.91
2023-01-09T18:22:37.438Z,56.96
2023-01-09T18:25:05.362Z,56.90
2023-01-09T18:27:32.032Z,56.78
2023-01-09T18:30:01.692Z,56.76
2023-01-09T18:32:29.205Z,56.65
2023-01-09T18:34:56.239Z,56.75
2023-01-09T18:37:22.868Z,56.68
2023-01-09T18:39:50.447Z,56.62
2023-01-09T18:42:17.149Z,56.99
2023-01-09T18:44:44.089Z,56.53
2023-01-09T18:47:10.745Z,57.16
2023-01-09T18:49:37.933Z,56.98
2023-01-09T18:52:07.397Z,56.84
2023-01-09T18:54:34.551Z,56.89
2023-01-09T18:57:01.320Z,56.53
2023-01-09T18:59:28.253Z,56.64
2023-01-09T19:01:54.941Z,56.74
2023-01-09T19:04:22.097Z,56.83
2023-01-09T19:06:49.444Z,56.79
2023-01-09T19:09:16.424Z,56.87
2023-01-09T19:11:46.115Z,56.94
2023-01-09T19:14:13.204Z,56.78
2023-01-09T19:16:39.976Z,56.92
2023-01-09T19:19:08.499Z,56.90
2023-01-09T19:21:35.473Z,57.00
2023-01-09T19:24:02.428Z,56.85
2023-01-09T19:26:30.874Z,57.15
2023-01-09T19:28:59.256Z,56.71
2023-01-09T19:31:26.519Z,56.88
2023-01-09T19:33:53.693Z,57.11
2023-01-09T19:36:21.514Z,56.94
2023-01-09T19:38:48.608Z,56.93
2023-01-09T19:41:19.242Z,56.53
2023-01-09T19:43:47.104Z,56.67
2023-01-09T19:46:24.295Z,56.97
2023-01-09T19:48:51.887Z,56.91
2023-01-09T19:51:19.526Z,57.12
2023-01-09T19:53:53.652Z,57.10
2023-01-09T19:56:21.994Z,57.12
2023-01-09T19:58:50.759Z,56.97
2023-01-09T20:01:24.679Z,57.15
2023-01-09T20:03:51.930Z,57.08
2023-01-09T20:06:22.357Z,57.42
2023-01-09T20:08:53.786Z,57.08
2023-01-09T20:11:20.912Z,57.18
2023-01-09T20:13:47.952Z,56.94
2023-01-09T20:16:20.335Z,57.22
2023-01-09T20:18:47.547Z,57.17
2023-01-09T20:21:18.642Z,57.26
2023-01-09T20:23:45.607Z,57.17
2023-01-09T20:26:13.607Z,57.36
2023-01-09T20:28:40.540Z,56.93
2023-01-09T20:31:09.593Z,57.12
2023-01-09T20:33:36.637Z,56.70
2023-01-09T20:36:04.813Z,56.89
2023-01-09T20:38:32.507Z,56.92
2023-01-09T20:41:09.883Z,57.27
2023-01-09T20:43:37.776Z,57.26
2023-01-09T20:46:05.055Z,57.18
2023-01-09T20:48:32.304Z,56.84
2023-01-09T20:51:06.828Z,57.15
2023-01-09T20:53:33.855Z,56.84
2023-01-09T20:56:01.805Z,57.15
2023-01-09T20:58:28.865Z,57.07
2023-01-09T21:00:55.571Z,57.07
2023-01-09T21:03:22.739Z,56.89
2023-01-09T21:05:49.371Z,57.24
2023-01-09T21:08:17.014Z,56.85
2023-01-09T21:10:43.745Z,56.88
2023-01-09T21:13:10.752Z,57.00
2023-01-09T21:15:38.555Z,57.02
2023-01-09T21:18:05.795Z,57.17
2023-01-09T21:20:32.454Z,57.07
2023-01-09T21:22:59.408Z,57.13
2023-01-09T21:25:26.395Z,57.07
2023-01-09T21:27:53.344Z,56.91
2023-01-09T21:30:20.006Z,56.82
2023-01-09T21:32:46.973Z,56.97
2023-01-09T21:35:13.632Z,56.84
2023-01-09T21:37:40.584Z,57.07
2023-01-09T21:40:14.284Z,56.99
2023-01-09T21:43:00.130Z,57.12
2023-01-09T21:45:45.435Z,56.66
2023-01-09T21:48:12.454Z,56.94
2023-01-09T21:50:41.005Z,57.05
2023-01-09T21:53:08.126Z,57.05
2023-01-09T21:55:35.748Z,56.97
2023-01-09T21:58:03.482Z,56.86
2023-01-09T22:00:30.234Z,56.98
2023-01-09T22:02:57.776Z,56.67
2023-01-09T22:05:24.682Z,56.89
2023-01-09T22:07:51.671Z,56.76
2023-01-09T22:10:18.358Z,56.96
2023-01-09T22:13:05.306Z,56.86
2023-01-09T22:15:32.441Z,56.60
2023-01-09T22:17:59.371Z,56.68
2023-01-09T22:20:26.097Z,57.03
2023-01-09T22:22:53.128Z,56.67
2023-01-09T22:25:22.681Z,56.67
2023-01-09T22:27:49.732Z,56.71
2023-01-09T22:30:16.644Z,56.70
2023-01-09T22:32:43.810Z,56.63
2023-01-09T22:35:10.516Z,56.53
2023-01-09T22:37:37.537Z,56.55
2023-01-09T22:40:06.765Z,56.66
2023-01-09T22:42:33.754Z,56.86
2023-01-09T22:45:00.453Z,56.62
2023-01-09T22:47:27.644Z,56.88
2023-01-09T22:49:54.330Z,56.55
2023-01-09T22:52:21.874Z,56.64
2023-01-09T22:54:48.570Z,56.58
2023-01-09T22:57:15.648Z,56.59
2023-01-09T22:59:42.397Z,56.64
2023-01-09T23:02:09.507Z,56.66
2023-01-09T23:04:36.238Z,56.81
2023-01-09T23:07:03.203Z,56.64
2023-01-09T23:09:29.913Z,56.72
2023-01-09T23:12:02.881Z,56.70
2023-01-09T23:14:30.805Z,56.58
2023-01-09T23:16:57.847Z,56.70
2023-01-09T23:19:24.602Z,56.58
2023-01-09T23:21:51.632Z,56.50
2023-01-09T23:24:18.364Z,56.64
2023-01-09T23:26:45.474Z,56.52
2023-01-09T23:29:12.670Z,56.65
2023-01-09T23:31:39.677Z,56.55
2023-01-09T23:34:08.150Z,56.55
2023-01-09T23:36:35.669Z,56.49
2023-01-09T23:39:04.145Z,56.46
2023-01-09T23:41:49.899Z,56.59
2023-01-09T23:44:16.634Z,56.36
2023-01-09T23:46:43.608Z,56.16
2023-01-09T23:49:10.430Z,56.74
2023-01-09T23:51:37.385Z,56.31
2023-01-09T23:54:04.260Z,56.40
2023-01-09T23:56:33.797Z,56.58
2023-01-09T23:59:05.177Z,56.42
